Time;durP1;ratioP1;P1;durP2;ratioP2;P2;SDS_P1;SDS_P2;PMS_P1;PMS_P2;Temp;Humidity;BMP_temperature;BMP_pressure;BME280_temperature;BME280_humidity;BME280_pressure;Samples;Min_cycle;Max_cycle;Signal;HPM_P1;HPM_P2
2022/07/21 00:00:27;;;;;;;17.03;15.33;;;19.90;99.90;;;;;;5126159;27;20680;-84
2022/07/21 00:02:53;;;;;;;16.33;14.73;;;20.00;99.90;;;;;;5125588;27;20180;-83
2022/07/21 00:05:19;;;;;;;16.73;15.13;;;19.90;99.90;;;;;;5120007;27;20291;-83
2022/07/21 00:07:45;;;;;;;17.17;15.47;;;20.00;99.90;;;;;;5138034;27;20273;-83
2022/07/21 00:10:12;;;;;;;16.10;14.60;;;20.00;99.90;;;;;;5119382;27;20646;-83
2022/07/21 00:12:38;;;;;;;17.77;15.80;;;20.10;99.90;;;;;;5119783;27;20228;-83
2022/07/21 00:15:06;;;;;;;16.83;15.27;;;20.10;99.90;;;;;;5119790;27;20271;-83
2022/07/21 00:17:32;;;;;;;16.73;14.97;;;20.20;99.90;;;;;;5140198;27;20200;-83
2022/07/21 00:19:57;;;;;;;17.10;15.50;;;20.10;99.90;;;;;;5123622;27;20661;-82
2022/07/21 00:22:25;;;;;;;17.87;15.87;;;19.90;99.90;;;;;;5135650;27;20173;-82
2022/07/21 00:24:50;;;;;;;18.17;16.10;;;19.90;99.90;;;;;;5143057;27;20184;-83
2022/07/21 00:27:17;;;;;;;17.67;15.90;;;19.90;99.90;;;;;;5128968;27;20209;-82
2022/07/21 00:29:44;;;;;;;17.37;15.57;;;19.80;99.90;;;;;;5123070;27;20177;-82
2022/07/21 00:32:12;;;;;;;17.93;15.47;;;19.90;99.90;;;;;;5144174;27;20210;-84
2022/07/21 00:34:38;;;;;;;17.77;15.97;;;19.90;99.90;;;;;;5113595;27;20238;-83
2022/07/21 00:37:04;;;;;;;17.77;14.87;;;19.80;99.90;;;;;;5136492;27;20205;-82
2022/07/21 00:39:30;;;;;;;17.73;16.00;;;19.90;99.90;;;;;;5139680;27;20196;-83
2022/07/21 00:41:57;;;;;;;18.13;16.30;;;19.90;99.90;;;;;;5160278;27;20191;-82
2022/07/21 00:44:25;;;;;;;17.30;15.70;;;19.80;99.90;;;;;;5161877;27;20221;-82
2022/07/21 00:46:54;;;;;;;18.30;16.57;;;19.90;99.90;;;;;;5131951;27;20240;-83
2022/07/21 00:49:32;;;;;;;19.30;17.33;;;19.90;99.90;;;;;;5141430;27;20646;-82
2022/07/21 00:52:00;;;;;;;18.63;16.87;;;20.00;99.90;;;;;;5119807;27;20160;-83
2022/07/21 00:54:26;;;;;;;18.53;16.83;;;19.90;99.90;;;;;;5118425;27;20169;-83
2022/07/21 00:56:52;;;;;;;20.37;17.37;;;19.80;99.90;;;;;;5118240;27;20667;-82
2022/07/21 00:59:18;;;;;;;19.03;17.13;;;19.70;99.90;;;;;;5137230;27;20193;-82
2022/07/21 01:01:43;;;;;;;19.93;17.83;;;19.70;99.90;;;;;;5139143;27;20176;-82
2022/07/21 01:04:09;;;;;;;19.50;17.77;;;19.70;99.90;;;;;;5118490;27;20168;-83
2022/07/21 01:06:35;;;;;;;19.70;17.77;;;19.70;99.90;;;;;;5118304;27;20260;-84
2022/07/21 01:09:01;;;;;;;19.40;17.50;;;19.80;99.90;;;;;;5118801;27;20176;-85
2022/07/21 01:11:27;;;;;;;18.30;16.60;;;19.80;99.90;;;;;;5118193;27;20231;-83
2022/07/21 01:13:55;;;;;;;18.63;16.80;;;19.80;99.90;;;;;;5136917;27;20172;-83
2022/07/21 01:16:21;;;;;;;18.10;16.30;;;19.70;99.90;;;;;;5118005;27;20179;-83
2022/07/21 01:18:46;;;;;;;18.03;16.33;;;19.60;99.90;;;;;;5117981;27;20188;-83
2022/07/21 01:21:30;;;;;;;20.43;16.87;;;19.70;99.90;;;;;;5136432;27;20183;-83
2022/07/21 01:23:56;;;;;;;18.97;16.27;;;19.70;99.90;;;;;;5118339;27;20316;-83
2022/07/21 01:26:22;;;;;;;18.47;16.67;;;19.70;99.90;;;;;;5117665;27;20177;-84
2022/07/21 01:28:48;;;;;;;18.17;16.27;;;19.70;99.90;;;;;;5118655;27;20175;-83
2022/07/21 01:31:14;;;;;;;19.57;16.23;;;19.70;99.90;;;;;;5136057;27;20168;-83
2022/07/21 01:33:40;;;;;;;19.60;15.70;;;19.70;99.90;;;;;;5115893;27;20189;-83
2022/07/21 01:36:06;;;;;;;17.37;15.57;;;19.60;99.90;;;;;;5117613;27;20640;-83
2022/07/21 01:41:34;;;;;;;16.80;15.30;;;19.50;99.90;;;;;;5135763;27;20537;-83
2022/07/21 01:44:09;;;;;;;16.53;14.90;;;19.40;99.90;;;;;;5117477;27;20192;-82
2022/07/21 01:46:37;;;;;;;19.67;15.37;;;19.50;99.90;;;;;;5117114;27;20210;-82
2022/07/21 01:49:04;;;;;;;16.80;15.10;;;19.50;99.90;;;;;;5117548;27;20214;-83
2022/07/21 01:51:30;;;;;;;16.00;14.37;;;19.60;99.90;;;;;;5117259;27;20188;-83
2022/07/21 01:53:56;;;;;;;16.43;14.77;;;19.50;99.90;;;;;;5117646;27;20171;-82
2022/07/21 01:56:23;;;;;;;17.00;15.00;;;19.60;99.90;;;;;;5135572;27;20176;-82
2022/07/21 01:58:51;;;;;;;16.17;14.23;;;19.60;99.90;;;;;;5119605;27;20711;-82
2022/07/21 02:01:19;;;;;;;17.37;15.53;;;19.60;99.90;;;;;;5141487;27;20172;-81
2022/07/21 02:03:46;;;;;;;15.90;14.23;;;19.60;99.90;;;;;;5140442;27;20179;-82
2022/07/21 02:06:12;;;;;;;17.23;15.43;;;19.60;99.90;;;;;;5136325;27;20242;-82
2022/07/21 02:08:39;;;;;;;16.53;14.90;;;19.70;99.90;;;;;;5123012;27;20645;-81
2022/07/21 02:11:09;;;;;;;16.33;14.10;;;19.60;99.90;;;;;;5117130;27;20160;-81
2022/07/21 02:13:38;;;;;;;17.07;14.10;;;19.60;99.90;;;;;;5117175;27;20183;-81
2022/07/21 02:16:04;;;;;;;15.43;13.50;;;19.50;99.90;;;;;;5117833;27;20532;-81
2022/07/21 02:18:30;;;;;;;14.63;12.67;;;19.50;99.90;;;;;;5119053;27;20184;-81
2022/07/21 02:20:56;;;;;;;15.50;13.90;;;19.60;99.90;;;;;;5135464;27;20171;-81
2022/07/21 02:23:23;;;;;;;16.40;13.97;;;19.70;99.90;;;;;;5140136;27;20161;-81
2022/07/21 02:25:50;;;;;;;15.77;13.43;;;19.60;99.90;;;;;;5142527;27;20167;-82
2022/07/21 02:28:19;;;;;;;14.57;13.07;;;19.70;99.90;;;;;;5142128;27;20222;-82
2022/07/21 02:30:45;;;;;;;16.00;13.40;;;19.60;99.90;;;;;;5157087;27;20288;-82
2022/07/21 02:33:14;;;;;;;15.03;13.30;;;19.60;99.90;;;;;;5136798;27;20185;-82
2022/07/21 02:35:41;;;;;;;15.27;13.10;;;19.60;99.90;;;;;;5132577;27;20168;-82
2022/07/21 02:38:11;;;;;;;16.57;14.37;;;19.60;99.90;;;;;;5132199;27;20168;-82
2022/07/21 02:40:38;;;;;;;16.23;13.13;;;19.60;99.90;;;;;;5128300;27;20168;-82
2022/07/21 02:43:07;;;;;;;14.70;11.60;;;19.60;99.90;;;;;;5153028;27;20220;-82
2022/07/21 02:45:34;;;;;;;14.47;11.73;;;19.60;99.90;;;;;;5139068;27;20144;-82
2022/07/21 02:48:07;;;;;;;16.53;12.13;;;19.70;99.90;;;;;;5140738;27;20219;-81
2022/07/21 02:50:41;;;;;;;16.90;11.97;;;19.60;99.90;;;;;;5157880;27;20184;-83
2022/07/21 02:53:13;;;;;;;14.17;11.07;;;19.60;99.20;;;;;;5126519;28;20229;-83
2022/07/21 02:55:39;;;;;;;12.77;11.40;;;19.70;98.10;;;;;;5140333;28;20163;-83
2022/07/21 02:58:15;;;;;;;15.20;10.93;;;19.80;96.90;;;;;;5120594;28;20171;-84
2022/07/21 03:00:53;;;;;;;13.73;10.57;;;19.70;95.70;;;;;;5116637;28;20172;-83
2022/07/21 03:03:19;;;;;;;13.30;10.57;;;19.70;96.80;;;;;;5116609;28;20171;-83
2022/07/21 03:05:45;;;;;;;14.17;10.30;;;19.60;97.40;;;;;;5116831;28;20195;-83
2022/07/21 03:08:18;;;;;;;15.50;9.80;;;19.60;98.00;;;;;;5116871;28;20650;-83
2022/07/21 03:10:46;;;;;;;13.17;9.80;;;19.60;97.50;;;;;;5117721;28;20210;-82
2022/07/21 03:13:13;;;;;;;14.30;10.07;;;19.50;98.40;;;;;;5145572;27;20277;-82
2022/07/21 03:15:39;;;;;;;11.90;9.17;;;19.60;97.80;;;;;;5136634;27;20175;-83
2022/07/21 03:18:06;;;;;;;12.10;9.27;;;19.50;97.40;;;;;;5146488;27;20191;-82
2022/07/21 03:20:34;;;;;;;15.17;9.33;;;19.50;97.70;;;;;;5124332;27;20174;-82
2022/07/21 03:23:00;;;;;;;14.40;8.73;;;19.50;97.80;;;;;;5120230;27;20259;-82
2022/07/21 03:25:29;;;;;;;12.60;9.10;;;19.50;97.90;;;;;;5138759;27;20245;-82
2022/07/21 03:27:54;;;;;;;13.10;8.90;;;19.60;97.40;;;;;;5119883;27;20222;-82
2022/07/21 03:30:21;;;;;;;12.23;9.20;;;19.70;95.60;;;;;;5138546;27;20168;-82
2022/07/21 03:32:48;;;;;;;11.90;8.90;;;19.80;93.50;;;;;;5121802;27;20637;-82
2022/07/21 03:35:14;;;;;;;13.93;8.63;;;19.70;94.10;;;;;;5147565;27;20531;-83
2022/07/21 03:37:51;;;;;;;10.53;8.00;;;19.50;95.80;;;;;;5121202;27;20199;-82
2022/07/21 03:40:25;;;;;;;12.93;8.83;;;19.50;96.10;;;;;;5139131;27;20615;-83
2022/07/21 03:42:56;;;;;;;12.33;8.97;;;19.40;97.40;;;;;;5138824;27;20598;-84
2022/07/21 03:45:22;;;;;;;13.60;9.50;;;19.40;98.10;;;;;;5120271;27;20170;-82
2022/07/21 03:47:48;;;;;;;14.17;9.47;;;19.30;98.80;;;;;;5119817;27;20208;-81
2022/07/21 03:50:17;;;;;;;14.27;9.50;;;19.30;99.30;;;;;;5119866;27;20319;-82
2022/07/21 03:52:43;;;;;;;14.50;10.17;;;19.30;99.20;;;;;;5120045;27;20179;-82
2022/07/21 03:55:09;;;;;;;15.93;10.13;;;19.30;99.00;;;;;;5119899;27;20171;-83
2022/07/21 03:57:39;;;;;;;15.43;10.47;;;19.20;99.90;;;;;;5120098;27;20184;-82
2022/07/21 04:00:11;;;;;;;14.37;10.37;;;19.30;99.90;;;;;;5120649;27;20189;-82
2022/07/21 04:02:37;;;;;;;14.73;11.20;;;19.20;99.90;;;;;;5123965;27;20550;-82
2022/07/21 04:05:04;;;;;;;17.60;11.90;;;19.30;99.90;;;;;;5134971;27;20189;-82
2022/07/21 04:07:32;;;;;;;17.97;11.90;;;19.30;99.90;;;;;;5124985;27;20210;-84
2022/07/21 04:09:58;;;;;;;16.10;11.23;;;19.30;99.90;;;;;;5138678;27;20191;-85
2022/07/21 04:12:27;;;;;;;17.23;13.10;;;19.30;99.90;;;;;;5120654;27;20197;-83
2022/07/21 04:14:54;;;;;;;16.30;12.90;;;19.30;99.90;;;;;;5119866;27;20551;-83
2022/07/21 04:17:22;;;;;;;15.73;12.87;;;19.30;99.90;;;;;;5119759;27;20179;-81
2022/07/21 04:19:48;;;;;;;14.83;12.70;;;19.30;99.90;;;;;;5119471;27;20190;-81
2022/07/21 04:22:14;;;;;;;17.23;12.33;;;19.40;99.90;;;;;;5118947;27;20176;-82
2022/07/21 04:24:40;;;;;;;19.53;13.07;;;19.30;99.90;;;;;;5136249;27;20230;-82
2022/07/21 04:27:06;;;;;;;15.77;12.77;;;19.40;99.90;;;;;;5118791;27;20217;-82
2022/07/21 04:29:32;;;;;;;17.03;12.43;;;19.50;99.90;;;;;;5118401;27;20210;-82
2022/07/21 04:31:57;;;;;;;16.93;11.90;;;19.50;99.90;;;;;;5119235;27;20206;-81
2022/07/21 04:34:23;;;;;;;15.10;12.80;;;19.40;99.90;;;;;;5118726;27;20615;-82
2022/07/21 04:36:50;;;;;;;16.57;12.50;;;19.40;99.90;;;;;;5122929;27;20534;-81
2022/07/21 04:39:15;;;;;;;15.67;13.17;;;19.40;99.90;;;;;;5122520;27;20657;-82
2022/07/21 04:41:41;;;;;;;19.67;14.80;;;19.40;99.90;;;;;;5141118;27;20189;-82
2022/07/21 04:44:06;;;;;;;18.37;13.87;;;19.30;99.90;;;;;;5119155;27;20187;-82
2022/07/21 04:46:32;;;;;;;19.77;14.60;;;19.30;99.90;;;;;;5118465;27;20179;-82
2022/07/21 04:48:58;;;;;;;16.93;13.80;;;19.30;99.90;;;;;;5118266;27;20182;-83
2022/07/21 04:51:23;;;;;;;19.33;14.93;;;19.30;99.90;;;;;;5118749;27;20552;-82
2022/07/21 04:53:50;;;;;;;16.97;14.23;;;19.20;99.90;;;;;;5137295;27;20172;-81
2022/07/21 04:56:17;;;;;;;21.17;14.40;;;19.20;99.90;;;;;;5118634;27;20631;-82
2022/07/21 04:58:43;;;;;;;19.40;14.70;;;19.20;99.90;;;;;;5118951;27;20277;-82
2022/07/21 05:01:09;;;;;;;20.30;15.83;;;19.30;99.90;;;;;;5118256;27;20172;-82
2022/07/21 05:03:34;;;;;;;22.53;16.20;;;19.40;99.90;;;;;;5118291;27;20174;-82
2022/07/21 05:06:00;;;;;;;21.30;15.80;;;19.60;99.90;;;;;;5118172;27;20169;-82
2022/07/21 05:08:27;;;;;;;20.77;16.27;;;19.50;99.90;;;;;;5117757;27;20206;-81
2022/07/21 05:10:55;;;;;;;20.37;16.87;;;19.50;99.90;;;;;;5117990;27;20167;-82
2022/07/21 05:13:20;;;;;;;21.57;16.00;;;19.50;99.90;;;;;;5117907;27;20183;-82
2022/07/21 05:15:46;;;;;;;18.50;16.40;;;19.40;99.90;;;;;;5118104;27;20681;-82
2022/07/21 05:18:11;;;;;;;23.70;17.07;;;19.40;99.90;;;;;;5136180;27;20784;-82
2022/07/21 05:20:37;;;;;;;20.10;16.80;;;19.40;99.90;;;;;;5117801;27;20668;-82
2022/07/21 05:23:03;;;;;;;21.37;16.97;;;19.30;99.90;;;;;;5117685;27;20171;-82
2022/07/21 05:25:31;;;;;;;18.40;15.87;;;19.30;99.90;;;;;;5117502;27;20257;-83
2022/07/21 05:27:57;;;;;;;18.63;15.93;;;19.20;99.90;;;;;;5117914;27;20211;-83
2022/07/21 05:30:23;;;;;;;19.27;16.90;;;19.30;99.90;;;;;;5160182;27;20161;-83
2022/07/21 05:32:49;;;;;;;18.73;16.83;;;19.20;99.90;;;;;;5159600;27;20182;-82
2022/07/21 05:35:15;;;;;;;21.60;17.40;;;19.20;99.90;;;;;;5138266;27;20196;-82
2022/07/21 05:37:45;;;;;;;22.77;17.83;;;19.30;99.90;;;;;;5127091;27;20183;-81
2022/07/21 05:40:12;;;;;;;23.13;19.30;;;19.20;99.90;;;;;;5120029;27;20228;-81
2022/07/21 05:42:39;;;;;;;23.33;18.27;;;19.30;99.90;;;;;;5120072;27;20191;-81
2022/07/21 05:45:06;;;;;;;23.80;17.93;;;19.20;99.90;;;;;;5155845;27;20171;-83
2022/07/21 05:47:35;;;;;;;22.73;18.63;;;19.20;99.90;;;;;;5118591;27;20215;-83
2022/07/21 05:50:01;;;;;;;22.80;18.83;;;19.20;99.90;;;;;;5138238;27;20185;-82
2022/07/21 05:52:27;;;;;;;23.67;19.77;;;19.30;99.90;;;;;;5104871;27;20176;-83
2022/07/21 05:54:53;;;;;;;24.27;18.83;;;19.30;99.90;;;;;;5143201;27;20232;-82
2022/07/21 05:57:19;;;;;;;22.23;19.20;;;19.30;99.90;;;;;;5142569;27;20162;-80
2022/07/21 05:59:47;;;;;;;27.00;20.43;;;19.20;99.90;;;;;;5137575;27;20193;-81
2022/07/21 06:02:16;;;;;;;23.83;19.53;;;19.30;99.90;;;;;;5154867;27;20163;-82
2022/07/21 06:04:48;;;;;;;22.37;19.57;;;19.30;99.90;;;;;;5158899;27;20186;-82
2022/07/21 06:07:13;;;;;;;25.17;21.20;;;19.30;99.90;;;;;;5131286;27;20207;-83
2022/07/21 06:09:39;;;;;;;23.40;19.73;;;19.30;99.90;;;;;;5125473;27;20178;-83
2022/07/21 06:12:05;;;;;;;24.03;20.63;;;19.30;99.90;;;;;;5120665;27;20239;-83
2022/07/21 06:14:30;;;;;;;24.43;20.73;;;19.30;99.90;;;;;;5136436;27;20675;-83
2022/07/21 06:16:56;;;;;;;27.63;21.07;;;19.20;99.90;;;;;;5118255;27;20189;-82
2022/07/21 06:19:22;;;;;;;25.30;20.33;;;19.20;99.90;;;;;;5122254;27;20198;-82
2022/07/21 06:21:47;;;;;;;23.97;19.93;;;19.20;99.90;;;;;;5119356;27;20194;-82
2022/07/21 06:24:13;;;;;;;24.20;21.07;;;19.20;99.90;;;;;;5127349;27;20162;-83
2022/07/21 06:26:39;;;;;;;26.43;21.57;;;19.30;99.90;;;;;;5150150;27;20168;-83
2022/07/21 06:29:06;;;;;;;28.60;21.13;;;19.20;99.90;;;;;;5143971;27;20178;-83
2022/07/21 06:31:32;;;;;;;24.43;21.80;;;19.20;99.90;;;;;;5119488;27;20186;-84
2022/07/21 06:33:58;;;;;;;24.93;21.50;;;19.20;99.90;;;;;;5118036;27;20195;-81
2022/07/21 06:36:24;;;;;;;27.47;22.00;;;19.30;99.90;;;;;;5118084;27;20230;-82
2022/07/21 06:38:50;;;;;;;26.57;22.93;;;19.40;99.90;;;;;;5123457;27;20175;-82
2022/07/21 06:41:16;;;;;;;28.83;23.53;;;19.40;99.90;;;;;;5142514;27;20199;-81
2022/07/21 06:43:42;;;;;;;29.27;24.53;;;19.30;99.90;;;;;;5122926;27;20193;-82
2022/07/21 06:46:08;;;;;;;28.87;24.77;;;19.30;99.90;;;;;;5137232;27;20180;-82
2022/07/21 06:48:34;;;;;;;36.83;27.03;;;19.20;99.90;;;;;;5141095;27;20276;-82
2022/07/21 06:51:01;;;;;;;33.30;26.77;;;19.10;99.90;;;;;;5140738;27;20166;-83
2022/07/21 06:53:27;;;;;;;36.90;28.73;;;19.20;99.90;;;;;;5141589;28;20174;-84
2022/07/21 06:55:56;;;;;;;36.33;28.87;;;19.30;99.90;;;;;;5151454;27;20186;-82
2022/07/21 06:58:25;;;;;;;42.03;30.80;;;19.30;99.90;;;;;;5130223;28;20167;-81
2022/07/21 07:00:52;;;;;;;39.07;29.73;;;19.30;99.90;;;;;;5127905;28;20227;-82
2022/07/21 07:03:20;;;;;;;41.47;31.03;;;19.20;99.90;;;;;;5118246;28;20169;-81
2022/07/21 07:05:47;;;;;;;41.60;31.17;;;19.30;99.90;;;;;;5117541;28;20166;-83
2022/07/21 07:08:16;;;;;;;38.00;30.47;;;19.30;99.90;;;;;;5118381;28;20644;-83
2022/07/21 07:10:43;;;;;;;41.33;30.67;;;19.20;99.90;;;;;;5118081;28;20171;-83
2022/07/21 07:13:10;;;;;;;42.20;31.17;;;19.30;99.90;;;;;;5117014;28;20642;-83
2022/07/21 07:15:37;;;;;;;47.67;33.73;;;19.20;99.90;;;;;;5101089;28;20657;-83
2022/07/21 07:18:02;;;;;;;44.00;33.20;;;19.20;99.90;;;;;;5116941;28;20202;-83
2022/07/21 07:20:28;;;;;;;45.53;33.23;;;19.30;99.90;;;;;;5100265;28;20171;-83
2022/07/21 07:22:54;;;;;;;43.50;32.77;;;19.30;99.90;;;;;;5116856;28;20181;-83
2022/07/21 07:25:21;;;;;;;44.73;32.13;;;19.40;99.90;;;;;;5153105;27;20261;-82
2022/07/21 07:27:50;;;;;;;46.87;33.97;;;19.40;99.90;;;;;;5116388;28;20235;-83
2022/07/21 07:30:18;;;;;;;43.70;33.57;;;19.40;99.90;;;;;;5118221;28;20167;-83
2022/07/21 07:32:46;;;;;;;42.43;31.80;;;19.40;99.90;;;;;;5117067;28;20610;-83
2022/07/21 07:35:12;;;;;;;42.70;33.00;;;19.40;99.90;;;;;;5116231;28;20270;-84
2022/07/21 07:37:41;;;;;;;52.53;36.20;;;19.60;99.90;;;;;;5116130;28;20202;-83
2022/07/21 07:40:11;;;;;;;49.43;35.73;;;19.50;99.90;;;;;;5115997;28;20175;-83
2022/07/21 07:42:38;;;;;;;48.77;35.07;;;19.60;99.90;;;;;;5115352;28;20222;-83
2022/07/21 07:45:05;;;;;;;46.30;34.27;;;19.60;99.90;;;;;;5116046;28;20639;-83
2022/07/21 07:47:31;;;;;;;45.27;34.80;;;19.60;99.90;;;;;;5115872;28;20288;-84
2022/07/21 07:49:57;;;;;;;49.30;35.67;;;19.60;99.90;;;;;;5118580;28;20278;-84
2022/07/21 07:52:23;;;;;;;49.30;35.80;;;19.60;99.90;;;;;;5099215;28;20641;-83
2022/07/21 07:54:49;;;;;;;49.10;35.30;;;19.40;99.90;;;;;;5135339;28;20205;-84
2022/07/21 07:57:15;;;;;;;48.13;35.33;;;19.40;99.90;;;;;;5115913;28;20180;-83
2022/07/21 07:59:40;;;;;;;50.87;36.20;;;19.30;99.90;;;;;;5119493;27;20638;-84
2022/07/21 08:02:06;;;;;;;44.73;35.17;;;19.30;99.90;;;;;;5138740;27;20584;-83
2022/07/21 08:04:32;;;;;;;45.70;35.17;;;19.40;99.90;;;;;;5120807;27;20256;-84
2022/07/21 08:06:57;;;;;;;44.73;34.87;;;19.40;99.90;;;;;;5119395;27;20542;-84
2022/07/21 08:09:23;;;;;;;47.07;35.43;;;19.40;99.90;;;;;;5120935;27;20182;-83
2022/07/21 08:11:50;;;;;;;48.60;36.33;;;19.40;99.90;;;;;;5119542;27;20215;-83
2022/07/21 08:14:17;;;;;;;39.70;33.37;;;19.40;99.90;;;;;;5138273;27;20179;-84
2022/07/21 08:16:43;;;;;;;47.60;33.57;;;19.30;99.90;;;;;;5119506;27;20177;-84
2022/07/21 08:19:09;;;;;;;44.77;33.27;;;19.30;99.90;;;;;;5120950;27;20247;-84
2022/07/21 08:21:35;;;;;;;40.63;33.23;;;19.30;99.90;;;;;;5120097;27;20644;-84
2022/07/21 08:24:02;;;;;;;34.93;30.50;;;19.30;99.90;;;;;;5120121;27;20684;-84
2022/07/21 08:26:28;;;;;;;40.60;29.57;;;19.30;99.90;;;;;;5119322;27;20687;-84
2022/07/21 08:28:56;;;;;;;37.83;31.17;;;19.30;99.90;;;;;;5120505;27;20206;-83
2022/07/21 08:31:23;;;;;;;32.30;28.87;;;19.30;99.90;;;;;;5120061;27;20192;-83
2022/07/21 08:33:50;;;;;;;35.77;30.37;;;19.30;99.90;;;;;;5138368;27;20620;-83
2022/07/21 08:36:17;;;;;;;31.97;27.20;;;19.30;99.90;;;;;;5118872;27;20618;-84
2022/07/21 08:38:43;;;;;;;38.00;29.80;;;19.30;99.90;;;;;;5120697;27;20179;-82
2022/07/21 08:41:08;;;;;;;37.70;30.10;;;19.30;99.90;;;;;;5120051;27;20188;-83
2022/07/21 08:43:35;;;;;;;37.10;28.57;;;19.30;99.90;;;;;;5119757;27;20205;-85
2022/07/21 08:46:02;;;;;;;26.87;23.00;;;19.30;99.90;;;;;;5119419;27;20209;-84
2022/07/21 08:48:29;;;;;;;23.50;20.83;;;19.30;99.90;;;;;;5120293;27;20206;-83
2022/07/21 08:50:56;;;;;;;18.90;17.00;;;19.20;99.90;;;;;;5120990;27;20622;-84
2022/07/21 08:53:22;;;;;;;18.07;16.27;;;19.10;99.90;;;;;;5133316;27;20177;-83
2022/07/21 08:55:48;;;;;;;15.97;14.27;;;19.00;99.90;;;;;;5142011;27;20178;-84
2022/07/21 08:58:16;;;;;;;15.90;14.30;;;19.00;99.90;;;;;;5138596;27;20525;-82
2022/07/21 09:00:49;;;;;;;14.47;13.03;;;19.00;99.90;;;;;;5143754;27;20260;-83
2022/07/21 09:03:21;;;;;;;13.37;11.93;;;18.90;99.90;;;;;;5157659;27;20157;-84
2022/07/21 09:06:18;;;;;;;13.17;11.93;;;18.80;99.90;;;;;;5134399;27;20183;-84
2022/07/21 09:09:01;;;;;;;11.53;10.20;;;18.70;99.90;;;;;;5121488;27;20247;-84
2022/07/21 09:11:30;;;;;;;12.80;11.37;;;18.60;99.90;;;;;;5120342;27;20166;-84
2022/07/21 09:14:10;;;;;;;14.97;12.63;;;18.70;99.90;;;;;;5138791;27;20203;-83
2022/07/21 09:16:43;;;;;;;12.20;10.87;;;18.80;99.90;;;;;;5140112;27;20184;-84
2022/07/21 09:19:17;;;;;;;11.90;9.97;;;18.70;99.90;;;;;;5132537;27;20196;-83
2022/07/21 09:21:43;;;;;;;12.27;8.90;;;18.70;99.90;;;;;;5133573;27;20232;-83
2022/07/21 09:24:34;;;;;;;9.50;8.47;;;18.70;99.90;;;;;;5143424;27;20160;-84
2022/07/21 09:27:04;;;;;;;11.20;8.83;;;18.70;99.90;;;;;;5143196;27;20198;-83
2022/07/21 09:29:49;;;;;;;10.03;9.03;;;18.70;99.90;;;;;;5136235;27;20184;-84
2022/07/21 09:32:21;;;;;;;9.33;7.80;;;18.80;99.90;;;;;;5118969;27;20209;-85
2022/07/21 09:34:52;;;;;;;10.40;9.17;;;18.80;99.90;;;;;;5119701;27;20159;-84
2022/07/21 09:37:20;;;;;;;11.83;9.07;;;18.80;99.90;;;;;;5118827;27;20191;-84
2022/07/21 09:39:54;;;;;;;12.57;9.67;;;18.80;99.90;;;;;;5136226;27;20191;-85
2022/07/21 09:42:32;;;;;;;10.03;8.97;;;18.80;99.90;;;;;;5141224;27;20200;-83
2022/07/21 09:45:11;;;;;;;11.20;9.20;;;18.80;99.90;;;;;;5139303;27;20181;-83
2022/07/21 09:47:38;;;;;;;9.63;8.63;;;18.80;99.90;;;;;;5119121;27;20198;-84
2022/07/21 09:50:05;;;;;;;9.80;8.83;;;18.80;99.90;;;;;;5121290;27;20204;-85
2022/07/21 09:52:34;;;;;;;10.23;9.23;;;18.80;99.90;;;;;;5120428;27;20235;-82
2022/07/21 09:55:11;;;;;;;10.20;8.40;;;18.90;99.90;;;;;;5118146;27;20172;-82
2022/07/21 09:57:37;;;;;;;11.73;8.97;;;18.90;99.90;;;;;;5117385;27;20173;-84
2022/07/21 10:00:09;;;;;;;9.83;8.17;;;19.00;99.90;;;;;;5119527;27;20171;-83
2022/07/21 10:02:35;;;;;;;8.80;7.90;;;18.90;99.90;;;;;;5118056;27;20630;-85
2022/07/21 10:05:07;;;;;;;9.60;8.20;;;18.90;99.90;;;;;;5117814;27;20170;-84
2022/07/21 10:07:37;;;;;;;8.67;7.63;;;18.90;99.90;;;;;;5116721;27;20207;-84
2022/07/21 10:10:04;;;;;;;9.53;8.00;;;18.90;99.90;;;;;;5119166;27;20171;-84
2022/07/21 10:12:30;;;;;;;11.23;7.97;;;19.00;99.90;;;;;;5117891;27;20257;-84
2022/07/21 10:14:56;;;;;;;9.93;8.40;;;19.00;99.90;;;;;;5117313;27;20211;-83
2022/07/21 10:17:24;;;;;;;10.73;8.43;;;19.10;99.90;;;;;;5117159;27;20181;-84
2022/07/21 10:20:08;;;;;;;11.03;7.93;;;19.20;99.90;;;;;;5119209;27;20198;-87
2022/07/21 10:23:11;;;;;;;11.43;9.23;;;19.10;99.90;;;;;;5116684;27;20579;-84
2022/07/21 10:25:37;;;;;;;11.47;9.27;;;19.30;99.90;;;;;;5136813;27;20517;-84
2022/07/21 10:28:22;;;;;;;10.00;8.37;;;19.30;99.90;;;;;;5118680;27;20623;-85
2022/07/21 10:30:54;;;;;;;12.93;9.00;;;19.40;99.90;;;;;;5137485;27;20163;-84
2022/07/21 10:33:42;;;;;;;10.80;9.50;;;19.20;99.90;;;;;;5117417;27;20203;-84
2022/07/21 10:36:08;;;;;;;14.90;11.20;;;19.10;99.90;;;;;;5116788;27;20173;-84
2022/07/21 10:38:35;;;;;;;14.13;9.87;;;19.00;99.90;;;;;;5117341;27;20174;-83
2022/07/21 10:41:05;;;;;;;15.83;10.50;;;19.00;99.90;;;;;;5135653;27;20175;-85
2022/07/21 10:43:31;;;;;;;16.37;10.07;;;18.90;99.90;;;;;;5131975;27;20247;-81
2022/07/21 10:45:59;;;;;;;12.93;9.40;;;18.90;99.90;;;;;;5158350;27;20245;-84
2022/07/21 10:48:42;;;;;;;14.87;10.77;;;18.90;99.90;;;;;;5138446;27;20222;-83
2022/07/21 10:51:11;;;;;;;12.27;8.67;;;18.80;99.90;;;;;;5138984;27;20176;-84
2022/07/21 10:53:44;;;;;;;16.27;10.27;;;18.80;99.90;;;;;;5128564;28;20232;-85
2022/07/21 10:56:38;;;;;;;14.50;10.37;;;18.80;99.90;;;;;;5125475;28;20179;-84
2022/07/21 10:59:12;;;;;;;14.10;9.90;;;18.90;99.90;;;;;;5118692;28;20165;-83
2022/07/21 11:01:40;;;;;;;11.80;8.83;;;19.00;99.90;;;;;;5117754;28;20211;-84
2022/07/21 11:04:17;;;;;;;11.37;9.17;;;19.00;99.90;;;;;;5117762;28;20254;-84
2022/07/21 11:06:44;;;;;;;11.63;9.10;;;19.10;99.90;;;;;;5116761;28;20648;-84
2022/07/21 11:09:16;;;;;;;14.90;9.30;;;19.20;99.90;;;;;;5118176;28;20855;-84
2022/07/21 11:11:59;;;;;;;10.73;8.43;;;19.50;99.90;;;;;;5117548;28;20186;-85
2022/07/21 11:14:46;;;;;;;11.43;7.57;;;19.70;99.90;;;;;;5117384;28;20247;-82
2022/07/21 11:17:28;;;;;;;16.73;8.47;;;19.60;99.90;;;;;;5116893;28;20182;-83
2022/07/21 11:19:53;;;;;;;13.30;8.40;;;19.50;99.90;;;;;;5118188;28;20195;-84
2022/07/21 11:22:27;;;;;;;13.30;8.33;;;19.60;99.90;;;;;;5117569;28;20191;-83
2022/07/21 11:25:02;;;;;;;12.97;8.53;;;19.60;99.90;;;;;;5118704;28;20179;-83
2022/07/21 11:27:31;;;;;;;13.77;8.40;;;19.70;99.90;;;;;;5117625;28;20572;-84
2022/07/21 11:30:00;;;;;;;13.00;8.67;;;19.70;99.90;;;;;;5120295;28;20173;-84
2022/07/21 11:32:26;;;;;;;12.03;8.40;;;19.80;99.90;;;;;;5117996;28;20194;-84
2022/07/21 11:35:00;;;;;;;14.33;10.43;;;19.70;99.90;;;;;;5127192;27;20173;-84
2022/07/21 11:37:38;;;;;;;11.37;8.73;;;19.70;99.90;;;;;;5130407;27;20175;-84
2022/07/21 11:40:12;;;;;;;12.07;8.20;;;19.80;99.90;;;;;;5142845;27;20179;-84
2022/07/21 11:42:38;;;;;;;13.97;8.83;;;19.80;99.90;;;;;;5140505;27;20591;-83
2022/07/21 11:45:07;;;;;;;12.83;7.60;;;19.80;99.90;;;;;;5132012;27;20623;-84
2022/07/21 11:47:37;;;;;;;9.53;7.47;;;19.80;99.90;;;;;;5123849;27;20198;-85
2022/07/21 11:50:06;;;;;;;13.10;8.03;;;19.80;99.90;;;;;;5121607;27;20200;-84
2022/07/21 11:52:34;;;;;;;11.47;7.33;;;19.80;99.90;;;;;;5139559;27;20180;-83
2022/07/21 11:55:02;;;;;;;10.27;8.20;;;19.90;99.90;;;;;;5122798;27;20172;-84
2022/07/21 11:57:28;;;;;;;14.40;8.40;;;19.90;99.90;;;;;;5124926;27;20210;-84
2022/07/21 11:59:56;;;;;;;11.53;6.97;;;20.00;99.90;;;;;;5137924;27;20181;-84
2022/07/21 12:02:31;;;;;;;9.00;6.17;;;20.00;99.50;;;;;;5156165;27;20167;-84
2022/07/21 12:05:04;;;;;;;10.40;5.83;;;19.80;99.60;;;;;;5131368;27;20177;-84
2022/07/21 12:07:39;;;;;;;9.03;4.90;;;19.70;99.80;;;;;;5124007;27;20293;-85
2022/07/21 12:10:06;;;;;;;11.30;5.40;;;19.70;99.90;;;;;;5120663;27;20272;-84
2022/07/21 12:12:34;;;;;;;11.77;6.50;;;19.80;99.90;;;;;;5124467;27;20186;-84
2022/07/21 12:15:29;;;;;;;12.07;6.20;;;19.80;99.90;;;;;;5123145;27;20163;-84
2022/07/21 12:18:02;;;;;;;11.80;6.13;;;20.00;99.70;;;;;;5121923;27;20677;-84
2022/07/21 12:20:28;;;;;;;11.07;7.30;;;20.10;99.10;;;;;;5154684;27;20174;-84
2022/07/21 12:22:55;;;;;;;10.60;6.17;;;20.10;98.40;;;;;;5140803;27;20168;-83
2022/07/21 12:25:33;;;;;;;13.13;7.23;;;20.00;98.50;;;;;;5161903;27;20163;-84
2022/07/21 12:28:01;;;;;;;13.63;7.33;;;20.00;99.80;;;;;;5161359;27;20191;-83
2022/07/21 12:30:36;;;;;;;14.93;7.53;;;20.00;99.90;;;;;;5130450;27;20256;-85
2022/07/21 12:33:11;;;;;;;12.80;7.63;;;19.90;99.90;;;;;;5117243;27;20187;-84
2022/07/21 12:35:43;;;;;;;11.57;7.03;;;19.80;99.90;;;;;;5138760;27;20235;-85
2022/07/21 12:38:11;;;;;;;13.00;6.90;;;19.60;99.90;;;;;;5139652;27;20166;-85
2022/07/21 12:40:41;;;;;;;12.90;6.70;;;19.70;99.90;;;;;;5122492;27;20172;-84